Delta Virtual Airport Information Service

Miami International Airport

ICAO: KMIA Country: United States
Latitude: 25.7932 Longitude: -80.2905
Latest Arrival : AAL1042 (1A) (KDFW-KMIA) Latest Departure : AAL1400 (1) (KMIA-MKJP)


WX CaptureLIVE
Data provided by noaa.gov | Fetched at 08:53:34

METAR : KMIA 041253Z 00000KT 10SM SCT017CB SCT033 BKN070 BKN250 27/25 A2998 RMK AO2 SLP153 CB NE-E MOV N T02720250 $

TAF : KMIA 041138Z 0412/0518 17006KT P6SM VCSH FEW025 SCT060 BKN250 FM041500 16010KT P6SM VCTS SCT025CB BKN050 FM050300 VRB05KT P6SM FEW035 SCT060 FM051500 14010KT P6SM VCTS SCT025CB BKN060


Runway Data for KMIA
Data provided by openaviationdata.com

Runway ID Mag Var Hdg Length Elevation Surface ILS Freq ILS Id ILS Slope
08L -5 92° 8595 ft 8 ft Concrete 109.3 IROY 0
08R -5 92° 10498 ft 8 ft Asphalt 110.3 IMFA 3
9 -5 92° 12994 ft 8 ft Concrete 110.9 IBUL 3
12 -5 124° 9357 ft 8 ft Concrete 108.9 IGEM 3
26L -5 272° 10498 ft 8 ft Asphalt 109.1 IVIN 3
26R -5 272° 8595 ft 8 ft Concrete 109.3 ICNV 0
27 -5 272° 12994 ft 8 ft Concrete 109.5 IMIA 3
30 -5 304° 9357 ft 8 ft Concrete 111.7 IDCX 3

Miami International Airport, United States
Use only for reference purposes



Not for navigational purposes.